createdAt,value
2023-04-01T00:10:05.849Z,3.80
2023-04-01T00:40:08.711Z,5.35
2023-04-01T01:10:12.888Z,9.53
2023-04-01T01:40:15.757Z,9.93
2023-04-01T02:10:19.452Z,9.70
2023-04-01T02:40:22.296Z,8.47
2023-04-01T03:10:26.200Z,10.43
2023-04-01T03:40:29.072Z,9.57
2023-04-01T04:10:33.377Z,9.03
2023-04-01T04:40:36.208Z,6.20
2023-04-01T05:10:39.802Z,5.80
2023-04-01T05:40:42.649Z,5.80
2023-04-01T06:10:47.300Z,6.33
2023-04-01T06:40:50.147Z,6.60
2023-04-01T07:10:54.627Z,7.65
2023-04-01T07:40:57.561Z,6.70
2023-04-01T08:11:01.270Z,5.80
2023-04-01T08:41:04.102Z,7.50
2023-04-01T09:11:07.920Z,6.07
2023-04-01T09:41:10.971Z,6.60
2023-04-01T10:11:18.063Z,8.77
2023-04-01T10:41:20.912Z,10.23
2023-04-01T11:11:25.807Z,11.25
2023-04-01T11:41:28.852Z,9.40
2023-04-01T12:11:32.941Z,10.90
2023-04-01T12:41:35.842Z,7.73
2023-04-01T13:11:39.422Z,8.43
2023-04-01T13:41:42.783Z,8.10
2023-04-01T14:11:45.982Z,8.07
2023-04-01T14:41:49.276Z,6.10
2023-04-01T15:11:53.212Z,7.67
2023-04-01T15:41:56.591Z,6.20
2023-04-01T16:12:00.184Z,6.63
2023-04-01T16:42:03.509Z,6.57
2023-04-01T17:12:07.144Z,7.07
2023-04-01T17:42:10.131Z,6.10
2023-04-01T18:12:14.071Z,6.30
2023-04-01T18:42:16.927Z,4.63
2023-04-01T19:12:21.676Z,6.35
2023-04-01T19:42:24.577Z,5.07
2023-04-01T20:12:28.943Z,4.73
2023-04-01T20:42:31.813Z,4.97
2023-04-01T21:12:34.965Z,5.53
2023-04-01T21:42:37.847Z,6.70
2023-04-01T22:12:41.932Z,6.75
2023-04-01T22:42:44.841Z,6.80
2023-04-01T23:12:49.534Z,6.13
2023-04-01T23:42:52.497Z,6.00
